sensor_id;sensor_type;location;lat;lon;timestamp;P1;durP1;ratioP1;P2;durP2;ratioP2
14740;SDS011;7462;53.530;9.414;2023-05-31T00:01:07;6.83;;;5.20;;
14740;SDS011;7462;53.530;9.414;2023-05-31T00:03:35;6.07;;;4.57;;
14740;SDS011;7462;53.530;9.414;2023-05-31T00:06:07;8.10;;;5.23;;
14740;SDS011;7462;53.530;9.414;2023-05-31T00:08:36;7.97;;;5.53;;
14740;SDS011;7462;53.530;9.414;2023-05-31T00:11:04;9.30;;;5.23;;
14740;SDS011;7462;53.530;9.414;2023-05-31T00:13:34;10.40;;;4.97;;
14740;SDS011;7462;53.530;9.414;2023-05-31T00:16:02;8.60;;;4.87;;
14740;SDS011;7462;53.530;9.414;2023-05-31T00:18:36;5.00;;;4.50;;
14740;SDS011;7462;53.530;9.414;2023-05-31T00:21:05;9.03;;;5.80;;
14740;SDS011;7462;53.530;9.414;2023-05-31T00:23:33;8.50;;;5.73;;
14740;SDS011;7462;53.530;9.414;2023-05-31T00:26:01;6.57;;;4.90;;
14740;SDS011;7462;53.530;9.414;2023-05-31T00:28:29;6.50;;;5.33;;
14740;SDS011;7462;53.530;9.414;2023-05-31T00:30:59;6.97;;;5.47;;
14740;SDS011;7462;53.530;9.414;2023-05-31T00:33:28;7.13;;;5.30;;
14740;SDS011;7462;53.530;9.414;2023-05-31T00:35:56;8.77;;;5.47;;
14740;SDS011;7462;53.530;9.414;2023-05-31T00:38:24;8.57;;;5.23;;
14740;SDS011;7462;53.530;9.414;2023-05-31T00:40:53;7.73;;;4.97;;
14740;SDS011;7462;53.530;9.414;2023-05-31T00:43:21;9.20;;;5.83;;
14740;SDS011;7462;53.530;9.414;2023-05-31T00:45:49;11.43;;;6.17;;
14740;SDS011;7462;53.530;9.414;2023-05-31T00:48:19;8.33;;;5.90;;
14740;SDS011;7462;53.530;9.414;2023-05-31T00:50:47;7.33;;;6.00;;
14740;SDS011;7462;53.530;9.414;2023-05-31T00:53:17;5.97;;;4.20;;
14740;SDS011;7462;53.530;9.414;2023-05-31T00:55:49;7.70;;;5.17;;
14740;SDS011;7462;53.530;9.414;2023-05-31T00:58:18;9.83;;;5.07;;
14740;SDS011;7462;53.530;9.414;2023-05-31T01:00:47;7.67;;;5.23;;
14740;SDS011;7462;53.530;9.414;2023-05-31T01:03:16;11.43;;;6.47;;
14740;SDS011;7462;53.530;9.414;2023-05-31T01:05:47;10.73;;;6.20;;
14740;SDS011;7462;53.530;9.414;2023-05-31T01:08:15;11.43;;;6.53;;
14740;SDS011;7462;53.530;9.414;2023-05-31T01:10:43;11.50;;;6.80;;
14740;SDS011;7462;53.530;9.414;2023-05-31T01:13:13;16.27;;;7.20;;
14740;SDS011;7462;53.530;9.414;2023-05-31T01:15:52;21.43;;;8.57;;
14740;SDS011;7462;53.530;9.414;2023-05-31T01:18:27;17.03;;;9.77;;
14740;SDS011;7462;53.530;9.414;2023-05-31T01:21:03;15.93;;;8.13;;
14740;SDS011;7462;53.530;9.414;2023-05-31T01:23:33;26.47;;;11.00;;
14740;SDS011;7462;53.530;9.414;2023-05-31T01:26:21;18.47;;;9.20;;
14740;SDS011;7462;53.530;9.414;2023-05-31T01:28:59;24.87;;;12.27;;
14740;SDS011;7462;53.530;9.414;2023-05-31T01:31:29;24.07;;;12.60;;
14740;SDS011;7462;53.530;9.414;2023-05-31T01:33:58;25.03;;;12.27;;
14740;SDS011;7462;53.530;9.414;2023-05-31T01:36:27;29.33;;;12.87;;
14740;SDS011;7462;53.530;9.414;2023-05-31T01:38:55;24.63;;;12.00;;
14740;SDS011;7462;53.530;9.414;2023-05-31T01:41:25;24.30;;;11.80;;
14740;SDS011;7462;53.530;9.414;2023-05-31T01:43:55;22.87;;;12.40;;
14740;SDS011;7462;53.530;9.414;2023-05-31T01:46:24;25.03;;;11.50;;
14740;SDS011;7462;53.530;9.414;2023-05-31T01:48:54;20.37;;;11.57;;
14740;SDS011;7462;53.530;9.414;2023-05-31T01:51:22;19.60;;;11.50;;
14740;SDS011;7462;53.530;9.414;2023-05-31T01:53:52;11.37;;;8.37;;
14740;SDS011;7462;53.530;9.414;2023-05-31T01:56:20;11.90;;;8.20;;
14740;SDS011;7462;53.530;9.414;2023-05-31T01:58:53;10.87;;;7.73;;
14740;SDS011;7462;53.530;9.414;2023-05-31T02:01:22;9.00;;;6.50;;
14740;SDS011;7462;53.530;9.414;2023-05-31T02:03:51;10.03;;;8.20;;
14740;SDS011;7462;53.530;9.414;2023-05-31T02:06:19;9.47;;;7.43;;
14740;SDS011;7462;53.530;9.414;2023-05-31T02:08:49;8.57;;;7.13;;
14740;SDS011;7462;53.530;9.414;2023-05-31T02:11:17;8.73;;;7.10;;
14740;SDS011;7462;53.530;9.414;2023-05-31T02:13:45;8.97;;;6.87;;
14740;SDS011;7462;53.530;9.414;2023-05-31T02:16:15;6.93;;;5.77;;
14740;SDS011;7462;53.530;9.414;2023-05-31T02:18:45;6.83;;;6.13;;
14740;SDS011;7462;53.530;9.414;2023-05-31T02:21:13;7.50;;;6.70;;
14740;SDS011;7462;53.530;9.414;2023-05-31T02:23:41;6.63;;;5.87;;
14740;SDS011;7462;53.530;9.414;2023-05-31T02:26:10;7.07;;;6.17;;
14740;SDS011;7462;53.530;9.414;2023-05-31T02:28:38;5.87;;;4.97;;
14740;SDS011;7462;53.530;9.414;2023-05-31T02:31:06;6.57;;;5.63;;
14740;SDS011;7462;53.530;9.414;2023-05-31T02:33:36;6.00;;;5.27;;
14740;SDS011;7462;53.530;9.414;2023-05-31T02:36:04;5.03;;;4.53;;
14740;SDS011;7462;53.530;9.414;2023-05-31T02:38:32;4.77;;;4.27;;
14740;SDS011;7462;53.530;9.414;2023-05-31T02:41:01;4.50;;;4.10;;
14740;SDS011;7462;53.530;9.414;2023-05-31T02:43:29;4.87;;;4.37;;
14740;SDS011;7462;53.530;9.414;2023-05-31T02:45:57;4.83;;;4.30;;
14740;SDS011;7462;53.530;9.414;2023-05-31T02:48:29;4.53;;;4.13;;
14740;SDS011;7462;53.530;9.414;2023-05-31T02:50:59;4.30;;;3.90;;
14740;SDS011;7462;53.530;9.414;2023-05-31T02:54:06;4.60;;;4.20;;
14740;SDS011;7462;53.530;9.414;2023-05-31T02:56:36;4.73;;;4.03;;
14740;SDS011;7462;53.530;9.414;2023-05-31T02:59:13;4.47;;;3.63;;
14740;SDS011;7462;53.530;9.414;2023-05-31T03:01:58;3.90;;;3.47;;
14740;SDS011;7462;53.530;9.414;2023-05-31T03:04:30;4.00;;;3.67;;
14740;SDS011;7462;53.530;9.414;2023-05-31T03:07:00;4.03;;;3.63;;
14740;SDS011;7462;53.530;9.414;2023-05-31T03:09:29;4.07;;;3.60;;
14740;SDS011;7462;53.530;9.414;2023-05-31T03:11:58;4.03;;;3.63;;
14740;SDS011;7462;53.530;9.414;2023-05-31T03:14:27;4.70;;;3.73;;
14740;SDS011;7462;53.530;9.414;2023-05-31T03:16:55;3.50;;;3.20;;
14740;SDS011;7462;53.530;9.414;2023-05-31T03:19:24;3.50;;;3.20;;
14740;SDS011;7462;53.530;9.414;2023-05-31T03:21:53;3.67;;;3.37;;
14740;SDS011;7462;53.530;9.414;2023-05-31T03:24:25;3.93;;;3.63;;
14740;SDS011;7462;53.530;9.414;2023-05-31T03:26:54;4.17;;;3.77;;
14740;SDS011;7462;53.530;9.414;2023-05-31T03:29:24;4.10;;;3.70;;
14740;SDS011;7462;53.530;9.414;2023-05-31T03:31:52;4.53;;;3.67;;
14740;SDS011;7462;53.530;9.414;2023-05-31T03:34:20;4.40;;;4.00;;
14740;SDS011;7462;53.530;9.414;2023-05-31T03:36:49;5.23;;;4.50;;
14740;SDS011;7462;53.530;9.414;2023-05-31T03:39:30;5.37;;;4.50;;
14740;SDS011;7462;53.530;9.414;2023-05-31T03:42:00;4.50;;;4.10;;
14740;SDS011;7462;53.530;9.414;2023-05-31T03:44:29;4.27;;;3.87;;
14740;SDS011;7462;53.530;9.414;2023-05-31T03:46:57;4.80;;;4.40;;
14740;SDS011;7462;53.530;9.414;2023-05-31T03:49:26;4.33;;;3.93;;
14740;SDS011;7462;53.530;9.414;2023-05-31T03:51:55;4.90;;;4.10;;
14740;SDS011;7462;53.530;9.414;2023-05-31T03:54:23;5.17;;;4.60;;
14740;SDS011;7462;53.530;9.414;2023-05-31T03:56:54;5.90;;;4.80;;
14740;SDS011;7462;53.530;9.414;2023-05-31T03:59:23;4.73;;;4.30;;
14740;SDS011;7462;53.530;9.414;2023-05-31T04:01:51;4.57;;;4.17;;
14740;SDS011;7462;53.530;9.414;2023-05-31T04:04:19;5.10;;;4.60;;
14740;SDS011;7462;53.530;9.414;2023-05-31T04:06:48;4.53;;;4.10;;
14740;SDS011;7462;53.530;9.414;2023-05-31T04:09:16;5.00;;;4.60;;
14740;SDS011;7462;53.530;9.414;2023-05-31T04:11:44;4.53;;;4.13;;
14740;SDS011;7462;53.530;9.414;2023-05-31T04:14:14;4.50;;;4.10;;
14740;SDS011;7462;53.530;9.414;2023-05-31T04:16:43;4.13;;;3.73;;
14740;SDS011;7462;53.530;9.414;2023-05-31T04:19:13;4.77;;;3.97;;
14740;SDS011;7462;53.530;9.414;2023-05-31T04:21:41;4.77;;;4.33;;
14740;SDS011;7462;53.530;9.414;2023-05-31T04:24:11;4.70;;;4.30;;
14740;SDS011;7462;53.530;9.414;2023-05-31T04:26:39;4.60;;;4.20;;
14740;SDS011;7462;53.530;9.414;2023-05-31T04:29:08;6.00;;;4.83;;
14740;SDS011;7462;53.530;9.414;2023-05-31T04:31:38;5.43;;;4.63;;
14740;SDS011;7462;53.530;9.414;2023-05-31T04:34:18;5.73;;;4.50;;
14740;SDS011;7462;53.530;9.414;2023-05-31T04:36:49;4.77;;;4.17;;
14740;SDS011;7462;53.530;9.414;2023-05-31T04:39:20;4.83;;;4.33;;
14740;SDS011;7462;53.530;9.414;2023-05-31T04:41:53;6.47;;;4.70;;
14740;SDS011;7462;53.530;9.414;2023-05-31T04:44:21;5.60;;;4.90;;
14740;SDS011;7462;53.530;9.414;2023-05-31T04:46:53;5.33;;;4.77;;
14740;SDS011;7462;53.530;9.414;2023-05-31T04:49:21;5.43;;;4.57;;
14740;SDS011;7462;53.530;9.414;2023-05-31T04:51:50;4.33;;;3.93;;
14740;SDS011;7462;53.530;9.414;2023-05-31T04:54:19;4.53;;;4.13;;
14740;SDS011;7462;53.530;9.414;2023-05-31T04:56:47;4.97;;;4.37;;
14740;SDS011;7462;53.530;9.414;2023-05-31T04:59:15;4.70;;;4.20;;
14740;SDS011;7462;53.530;9.414;2023-05-31T05:01:44;6.07;;;4.77;;
14740;SDS011;7462;53.530;9.414;2023-05-31T05:04:16;6.47;;;4.80;;
14740;SDS011;7462;53.530;9.414;2023-05-31T05:06:44;5.60;;;4.57;;
14740;SDS011;7462;53.530;9.414;2023-05-31T05:09:13;5.23;;;4.67;;
14740;SDS011;7462;53.530;9.414;2023-05-31T05:11:44;5.20;;;4.70;;
14740;SDS011;7462;53.530;9.414;2023-05-31T05:14:12;4.83;;;4.43;;
14740;SDS011;7462;53.530;9.414;2023-05-31T05:16:40;5.30;;;4.77;;
14740;SDS011;7462;53.530;9.414;2023-05-31T05:19:08;6.77;;;5.50;;
14740;SDS011;7462;53.530;9.414;2023-05-31T05:21:39;5.80;;;5.20;;
14740;SDS011;7462;53.530;9.414;2023-05-31T05:24:10;7.73;;;4.93;;
14740;SDS011;7462;53.530;9.414;2023-05-31T05:26:38;7.53;;;5.30;;
14740;SDS011;7462;53.530;9.414;2023-05-31T05:29:06;7.90;;;5.70;;
14740;SDS011;7462;53.530;9.414;2023-05-31T05:31:34;6.73;;;5.43;;
14740;SDS011;7462;53.530;9.414;2023-05-31T05:34:04;6.80;;;5.23;;
14740;SDS011;7462;53.530;9.414;2023-05-31T05:36:33;7.80;;;5.83;;
14740;SDS011;7462;53.530;9.414;2023-05-31T05:39:03;7.40;;;5.90;;
14740;SDS011;7462;53.530;9.414;2023-05-31T05:41:33;9.90;;;5.43;;
14740;SDS011;7462;53.530;9.414;2023-05-31T05:44:02;7.30;;;5.30;;
14740;SDS011;7462;53.530;9.414;2023-05-31T05:46:31;7.10;;;5.53;;
14740;SDS011;7462;53.530;9.414;2023-05-31T05:49:01;6.87;;;5.70;;
14740;SDS011;7462;53.530;9.414;2023-05-31T05:51:29;6.13;;;5.53;;
14740;SDS011;7462;53.530;9.414;2023-05-31T05:54:03;6.67;;;5.00;;
14740;SDS011;7462;53.530;9.414;2023-05-31T05:56:31;8.27;;;6.37;;
14740;SDS011;7462;53.530;9.414;2023-05-31T05:59:00;7.30;;;5.30;;
14740;SDS011;7462;53.530;9.414;2023-05-31T06:01:47;8.47;;;5.37;;
14740;SDS011;7462;53.530;9.414;2023-05-31T06:04:16;10.43;;;5.57;;
14740;SDS011;7462;53.530;9.414;2023-05-31T06:06:45;7.60;;;4.97;;
14740;SDS011;7462;53.530;9.414;2023-05-31T06:09:16;6.43;;;4.80;;
14740;SDS011;7462;53.530;9.414;2023-05-31T06:11:44;6.67;;;4.50;;
14740;SDS011;7462;53.530;9.414;2023-05-31T06:14:12;6.63;;;5.30;;
14740;SDS011;7462;53.530;9.414;2023-05-31T06:16:47;6.00;;;4.70;;
14740;SDS011;7462;53.530;9.414;2023-05-31T06:19:16;6.20;;;5.13;;
14740;SDS011;7462;53.530;9.414;2023-05-31T06:21:45;6.60;;;4.67;;
14740;SDS011;7462;53.530;9.414;2023-05-31T06:24:15;11.60;;;5.27;;
14740;SDS011;7462;53.530;9.414;2023-05-31T06:26:43;6.93;;;4.77;;
14740;SDS011;7462;53.530;9.414;2023-05-31T06:29:11;6.63;;;5.10;;
14740;SDS011;7462;53.530;9.414;2023-05-31T06:31:49;6.20;;;4.43;;
14740;SDS011;7462;53.530;9.414;2023-05-31T06:34:18;7.47;;;4.73;;
14740;SDS011;7462;53.530;9.414;2023-05-31T06:36:46;5.40;;;3.97;;
14740;SDS011;7462;53.530;9.414;2023-05-31T06:39:16;5.93;;;3.60;;
14740;SDS011;7462;53.530;9.414;2023-05-31T06:41:44;6.80;;;4.33;;
14740;SDS011;7462;53.530;9.414;2023-05-31T06:44:35;5.40;;;3.60;;
14740;SDS011;7462;53.530;9.414;2023-05-31T06:47:43;5.70;;;4.00;;
14740;SDS011;7462;53.530;9.414;2023-05-31T06:50:59;5.30;;;3.90;;
14740;SDS011;7462;53.530;9.414;2023-05-31T06:53:56;6.57;;;3.47;;
14740;SDS011;7462;53.530;9.414;2023-05-31T06:56:28;7.77;;;4.43;;
14740;SDS011;7462;53.530;9.414;2023-05-31T06:58:56;5.17;;;3.50;;
14740;SDS011;7462;53.530;9.414;2023-05-31T07:01:24;5.90;;;3.43;;
14740;SDS011;7462;53.530;9.414;2023-05-31T07:03:53;7.30;;;3.97;;
14740;SDS011;7462;53.530;9.414;2023-05-31T07:06:22;6.73;;;4.37;;
14740;SDS011;7462;53.530;9.414;2023-05-31T07:08:51;6.10;;;3.70;;
14740;SDS011;7462;53.530;9.414;2023-05-31T07:11:22;5.80;;;3.60;;
14740;SDS011;7462;53.530;9.414;2023-05-31T07:13:53;4.10;;;3.20;;
14740;SDS011;7462;53.530;9.414;2023-05-31T07:16:25;5.20;;;3.20;;
14740;SDS011;7462;53.530;9.414;2023-05-31T07:18:56;5.70;;;3.17;;
14740;SDS011;7462;53.530;9.414;2023-05-31T07:21:24;4.33;;;2.80;;
14740;SDS011;7462;53.530;9.414;2023-05-31T07:23:54;5.07;;;2.87;;
14740;SDS011;7462;53.530;9.414;2023-05-31T07:26:22;7.37;;;2.73;;
14740;SDS011;7462;53.530;9.414;2023-05-31T07:28:51;10.13;;;3.20;;
14740;SDS011;7462;53.530;9.414;2023-05-31T07:31:21;5.33;;;3.00;;
14740;SDS011;7462;53.530;9.414;2023-05-31T07:33:49;6.87;;;3.50;;
14740;SDS011;7462;53.530;9.414;2023-05-31T07:36:18;6.73;;;3.50;;
14740;SDS011;7462;53.530;9.414;2023-05-31T07:38:46;6.73;;;3.53;;
14740;SDS011;7462;53.530;9.414;2023-05-31T07:41:14;6.90;;;3.17;;
14740;SDS011;7462;53.530;9.414;2023-05-31T07:43:43;6.50;;;3.57;;
14740;SDS011;7462;53.530;9.414;2023-05-31T07:46:12;7.73;;;3.33;;
14740;SDS011;7462;53.530;9.414;2023-05-31T07:48:41;6.77;;;3.10;;
14740;SDS011;7462;53.530;9.414;2023-05-31T07:51:09;6.63;;;4.00;;
14740;SDS011;7462;53.530;9.414;2023-05-31T07:53:38;6.90;;;3.20;;
14740;SDS011;7462;53.530;9.414;2023-05-31T07:56:07;7.17;;;3.60;;
14740;SDS011;7462;53.530;9.414;2023-05-31T07:58:35;7.43;;;2.80;;
14740;SDS011;7462;53.530;9.414;2023-05-31T08:01:03;8.53;;;3.63;;
14740;SDS011;7462;53.530;9.414;2023-05-31T08:03:32;8.93;;;3.70;;
14740;SDS011;7462;53.530;9.414;2023-05-31T08:06:01;6.80;;;3.40;;
14740;SDS011;7462;53.530;9.414;2023-05-31T08:08:30;7.37;;;3.40;;
14740;SDS011;7462;53.530;9.414;2023-05-31T08:11:00;5.90;;;3.40;;
14740;SDS011;7462;53.530;9.414;2023-05-31T08:13:28;6.73;;;2.87;;
14740;SDS011;7462;53.530;9.414;2023-05-31T08:15:56;8.17;;;3.17;;
14740;SDS011;7462;53.530;9.414;2023-05-31T08:18:24;7.77;;;3.17;;
14740;SDS011;7462;53.530;9.414;2023-05-31T08:20:52;7.90;;;3.60;;
14740;SDS011;7462;53.530;9.414;2023-05-31T08:23:22;6.77;;;3.17;;
14740;SDS011;7462;53.530;9.414;2023-05-31T08:25:50;5.97;;;3.00;;
14740;SDS011;7462;53.530;9.414;2023-05-31T08:28:19;6.47;;;2.80;;
14740;SDS011;7462;53.530;9.414;2023-05-31T08:30:47;4.57;;;2.40;;
14740;SDS011;7462;53.530;9.414;2023-05-31T08:33:16;7.57;;;3.23;;
14740;SDS011;7462;53.530;9.414;2023-05-31T08:35:44;5.27;;;2.77;;
14740;SDS011;7462;53.530;9.414;2023-05-31T08:38:12;6.17;;;2.90;;
14740;SDS011;7462;53.530;9.414;2023-05-31T08:40:41;5.43;;;2.53;;
14740;SDS011;7462;53.530;9.414;2023-05-31T08:43:10;5.60;;;2.97;;
14740;SDS011;7462;53.530;9.414;2023-05-31T08:45:42;6.17;;;2.50;;
14740;SDS011;7462;53.530;9.414;2023-05-31T08:48:13;4.60;;;2.33;;
14740;SDS011;7462;53.530;9.414;2023-05-31T08:50:44;6.83;;;2.60;;
14740;SDS011;7462;53.530;9.414;2023-05-31T08:53:14;5.57;;;2.13;;
14740;SDS011;7462;53.530;9.414;2023-05-31T08:55:45;5.80;;;1.90;;
14740;SDS011;7462;53.530;9.414;2023-05-31T08:58:14;6.40;;;2.40;;
14740;SDS011;7462;53.530;9.414;2023-05-31T09:00:43;2.97;;;1.73;;
14740;SDS011;7462;53.530;9.414;2023-05-31T09:03:15;3.27;;;1.83;;
14740;SDS011;7462;53.530;9.414;2023-05-31T09:05:43;4.37;;;2.20;;
14740;SDS011;7462;53.530;9.414;2023-05-31T09:08:11;2.83;;;1.97;;
14740;SDS011;7462;53.530;9.414;2023-05-31T09:10:40;4.93;;;1.90;;
14740;SDS011;7462;53.530;9.414;2023-05-31T09:13:09;5.67;;;2.13;;
14740;SDS011;7462;53.530;9.414;2023-05-31T09:15:37;3.57;;;2.10;;
14740;SDS011;7462;53.530;9.414;2023-05-31T09:18:13;3.43;;;1.90;;
14740;SDS011;7462;53.530;9.414;2023-05-31T09:20:42;5.43;;;2.30;;
14740;SDS011;7462;53.530;9.414;2023-05-31T09:23:14;4.43;;;2.10;;
14740;SDS011;7462;53.530;9.414;2023-05-31T09:25:46;4.53;;;2.20;;
14740;SDS011;7462;53.530;9.414;2023-05-31T09:28:17;3.87;;;2.00;;
14740;SDS011;7462;53.530;9.414;2023-05-31T09:30:49;4.07;;;2.10;;
14740;SDS011;7462;53.530;9.414;2023-05-31T09:33:39;4.63;;;2.30;;
14740;SDS011;7462;53.530;9.414;2023-05-31T09:36:08;5.00;;;2.20;;
14740;SDS011;7462;53.530;9.414;2023-05-31T09:38:37;4.50;;;2.20;;
14740;SDS011;7462;53.530;9.414;2023-05-31T09:41:15;4.37;;;2.40;;
14740;SDS011;7462;53.530;9.414;2023-05-31T09:43:46;5.60;;;2.60;;
14740;SDS011;7462;53.530;9.414;2023-05-31T09:46:15;4.47;;;2.60;;
14740;SDS011;7462;53.530;9.414;2023-05-31T09:48:44;4.33;;;2.00;;
14740;SDS011;7462;53.530;9.414;2023-05-31T09:51:13;4.47;;;2.30;;
14740;SDS011;7462;53.530;9.414;2023-05-31T09:53:42;3.87;;;1.90;;
14740;SDS011;7462;53.530;9.414;2023-05-31T09:56:17;3.80;;;2.00;;
14740;SDS011;7462;53.530;9.414;2023-05-31T09:58:48;3.30;;;1.70;;
14740;SDS011;7462;53.530;9.414;2023-05-31T10:01:18;4.73;;;1.97;;
14740;SDS011;7462;53.530;9.414;2023-05-31T10:03:47;5.07;;;2.70;;
14740;SDS011;7462;53.530;9.414;2023-05-31T10:06:16;4.27;;;2.33;;
14740;SDS011;7462;53.530;9.414;2023-05-31T10:08:45;6.53;;;2.83;;
14740;SDS011;7462;53.530;9.414;2023-05-31T10:11:14;4.73;;;2.67;;
14740;SDS011;7462;53.530;9.414;2023-05-31T10:13:44;4.97;;;2.50;;
14740;SDS011;7462;53.530;9.414;2023-05-31T10:16:17;5.83;;;2.63;;
14740;SDS011;7462;53.530;9.414;2023-05-31T10:18:48;4.17;;;2.30;;
14740;SDS011;7462;53.530;9.414;2023-05-31T10:21:21;5.53;;;2.63;;
14740;SDS011;7462;53.530;9.414;2023-05-31T10:23:55;6.70;;;2.20;;
14740;SDS011;7462;53.530;9.414;2023-05-31T10:26:26;7.60;;;2.80;;
14740;SDS011;7462;53.530;9.414;2023-05-31T10:29:08;6.97;;;2.83;;
14740;SDS011;7462;53.530;9.414;2023-05-31T10:31:43;4.43;;;3.00;;
14740;SDS011;7462;53.530;9.414;2023-05-31T10:34:19;3.57;;;1.93;;
14740;SDS011;7462;53.530;9.414;2023-05-31T10:36:49;4.97;;;2.30;;
14740;SDS011;7462;53.530;9.414;2023-05-31T10:39:21;5.37;;;1.97;;
14740;SDS011;7462;53.530;9.414;2023-05-31T10:41:55;5.47;;;2.00;;
14740;SDS011;7462;53.530;9.414;2023-05-31T10:44:33;5.80;;;2.33;;
14740;SDS011;7462;53.530;9.414;2023-05-31T10:47:06;5.70;;;1.90;;
14740;SDS011;7462;53.530;9.414;2023-05-31T10:49:36;5.93;;;2.00;;
14740;SDS011;7462;53.530;9.414;2023-05-31T10:52:08;7.63;;;2.20;;
14740;SDS011;7462;53.530;9.414;2023-05-31T10:54:36;4.27;;;1.93;;
14740;SDS011;7462;53.530;9.414;2023-05-31T10:57:06;6.07;;;1.90;;
14740;SDS011;7462;53.530;9.414;2023-05-31T10:59:41;6.03;;;2.30;;
14740;SDS011;7462;53.530;9.414;2023-05-31T11:02:11;4.57;;;1.80;;
14740;SDS011;7462;53.530;9.414;2023-05-31T11:04:39;4.17;;;1.50;;
14740;SDS011;7462;53.530;9.414;2023-05-31T11:07:13;6.27;;;1.70;;
14740;SDS011;7462;53.530;9.414;2023-05-31T11:12:34;5.20;;;2.20;;
14740;SDS011;7462;53.530;9.414;2023-05-31T11:15:05;4.30;;;1.77;;
14740;SDS011;7462;53.530;9.414;2023-05-31T11:17:39;6.53;;;1.90;;
14740;SDS011;7462;53.530;9.414;2023-05-31T11:20:17;4.63;;;1.70;;
14740;SDS011;7462;53.530;9.414;2023-05-31T11:22:46;3.90;;;1.70;;
14740;SDS011;7462;53.530;9.414;2023-05-31T11:25:20;4.23;;;1.57;;
14740;SDS011;7462;53.530;9.414;2023-05-31T11:27:52;3.23;;;1.30;;
14740;SDS011;7462;53.530;9.414;2023-05-31T11:30:37;3.80;;;1.57;;
14740;SDS011;7462;53.530;9.414;2023-05-31T11:33:15;2.73;;;1.23;;
14740;SDS011;7462;53.530;9.414;2023-05-31T11:35:45;4.83;;;1.50;;
14740;SDS011;7462;53.530;9.414;2023-05-31T11:38:13;3.63;;;1.40;;
14740;SDS011;7462;53.530;9.414;2023-05-31T11:40:42;2.77;;;1.43;;
14740;SDS011;7462;53.530;9.414;2023-05-31T11:43:10;2.53;;;1.30;;
14740;SDS011;7462;53.530;9.414;2023-05-31T11:45:45;3.20;;;1.30;;
14740;SDS011;7462;53.530;9.414;2023-05-31T11:48:20;2.53;;;1.10;;
14740;SDS011;7462;53.530;9.414;2023-05-31T11:50:56;3.63;;;1.50;;
14740;SDS011;7462;53.530;9.414;2023-05-31T11:53:26;3.50;;;1.20;;
14740;SDS011;7462;53.530;9.414;2023-05-31T11:55:55;5.07;;;1.83;;
14740;SDS011;7462;53.530;9.414;2023-05-31T11:58:25;4.07;;;1.60;;
14740;SDS011;7462;53.530;9.414;2023-05-31T12:00:58;3.17;;;1.30;;
14740;SDS011;7462;53.530;9.414;2023-05-31T12:03:28;3.33;;;1.40;;
14740;SDS011;7462;53.530;9.414;2023-05-31T12:05:58;2.70;;;1.20;;
14740;SDS011;7462;53.530;9.414;2023-05-31T12:08:26;3.73;;;1.50;;
14740;SDS011;7462;53.530;9.414;2023-05-31T12:11:02;3.57;;;1.30;;
14740;SDS011;7462;53.530;9.414;2023-05-31T12:13:32;3.67;;;1.07;;
14740;SDS011;7462;53.530;9.414;2023-05-31T12:16:03;3.47;;;1.10;;
14740;SDS011;7462;53.530;9.414;2023-05-31T12:18:32;4.80;;;1.37;;
14740;SDS011;7462;53.530;9.414;2023-05-31T12:21:08;2.23;;;1.10;;
14740;SDS011;7462;53.530;9.414;2023-05-31T12:23:51;2.93;;;1.23;;
14740;SDS011;7462;53.530;9.414;2023-05-31T12:26:19;3.17;;;1.27;;
14740;SDS011;7462;53.530;9.414;2023-05-31T12:28:49;4.33;;;1.10;;
14740;SDS011;7462;53.530;9.414;2023-05-31T12:31:22;1.60;;;1.17;;
14740;SDS011;7462;53.530;9.414;2023-05-31T12:33:51;3.90;;;1.30;;
14740;SDS011;7462;53.530;9.414;2023-05-31T12:36:26;2.73;;;1.40;;
14740;SDS011;7462;53.530;9.414;2023-05-31T12:38:55;4.93;;;1.30;;
14740;SDS011;7462;53.530;9.414;2023-05-31T12:41:24;3.43;;;1.20;;
14740;SDS011;7462;53.530;9.414;2023-05-31T12:43:53;4.57;;;1.40;;
14740;SDS011;7462;53.530;9.414;2023-05-31T12:46:23;4.80;;;1.40;;
14740;SDS011;7462;53.530;9.414;2023-05-31T12:48:51;3.87;;;1.50;;
14740;SDS011;7462;53.530;9.414;2023-05-31T12:51:20;3.57;;;1.40;;
14740;SDS011;7462;53.530;9.414;2023-05-31T12:53:48;3.83;;;1.30;;
14740;SDS011;7462;53.530;9.414;2023-05-31T12:56:17;2.97;;;1.40;;
14740;SDS011;7462;53.530;9.414;2023-05-31T12:58:45;3.20;;;1.67;;
14740;SDS011;7462;53.530;9.414;2023-05-31T13:01:13;2.33;;;1.30;;
14740;SDS011;7462;53.530;9.414;2023-05-31T13:03:42;3.77;;;1.50;;
14740;SDS011;7462;53.530;9.414;2023-05-31T13:06:10;2.10;;;1.10;;
14740;SDS011;7462;53.530;9.414;2023-05-31T13:08:38;2.87;;;1.20;;
14740;SDS011;7462;53.530;9.414;2023-05-31T13:11:06;4.03;;;1.60;;
14740;SDS011;7462;53.530;9.414;2023-05-31T13:13:34;5.63;;;1.73;;
14740;SDS011;7462;53.530;9.414;2023-05-31T13:16:02;3.37;;;1.90;;
14740;SDS011;7462;53.530;9.414;2023-05-31T13:18:31;3.60;;;1.70;;
14740;SDS011;7462;53.530;9.414;2023-05-31T13:21:01;4.70;;;1.77;;
14740;SDS011;7462;53.530;9.414;2023-05-31T13:23:29;3.33;;;1.60;;
14740;SDS011;7462;53.530;9.414;2023-05-31T13:25:57;5.87;;;1.80;;
14740;SDS011;7462;53.530;9.414;2023-05-31T13:28:25;6.30;;;2.40;;
14740;SDS011;7462;53.530;9.414;2023-05-31T13:30:53;5.90;;;2.60;;
14740;SDS011;7462;53.530;9.414;2023-05-31T13:33:21;4.67;;;2.20;;
14740;SDS011;7462;53.530;9.414;2023-05-31T13:35:52;5.30;;;2.37;;
14740;SDS011;7462;53.530;9.414;2023-05-31T13:38:23;5.10;;;2.40;;
14740;SDS011;7462;53.530;9.414;2023-05-31T13:40:51;3.73;;;2.00;;
14740;SDS011;7462;53.530;9.414;2023-05-31T13:43:20;6.97;;;2.40;;
14740;SDS011;7462;53.530;9.414;2023-05-31T13:45:48;5.93;;;2.53;;
14740;SDS011;7462;53.530;9.414;2023-05-31T13:48:17;12.60;;;4.67;;
14740;SDS011;7462;53.530;9.414;2023-05-31T13:50:45;5.97;;;2.30;;
14740;SDS011;7462;53.530;9.414;2023-05-31T13:53:13;6.33;;;2.20;;
14740;SDS011;7462;53.530;9.414;2023-05-31T13:55:44;5.63;;;1.93;;
14740;SDS011;7462;53.530;9.414;2023-05-31T13:58:28;5.67;;;2.00;;
14740;SDS011;7462;53.530;9.414;2023-05-31T14:00:56;4.40;;;2.00;;
14740;SDS011;7462;53.530;9.414;2023-05-31T14:03:25;7.87;;;1.90;;
14740;SDS011;7462;53.530;9.414;2023-05-31T14:05:53;3.97;;;2.07;;
14740;SDS011;7462;53.530;9.414;2023-05-31T14:08:22;6.10;;;2.20;;
14740;SDS011;7462;53.530;9.414;2023-05-31T14:10:51;4.33;;;2.07;;
14740;SDS011;7462;53.530;9.414;2023-05-31T14:13:19;6.87;;;2.87;;
14740;SDS011;7462;53.530;9.414;2023-05-31T14:15:47;5.83;;;2.50;;
14740;SDS011;7462;53.530;9.414;2023-05-31T14:18:16;7.30;;;2.57;;
14740;SDS011;7462;53.530;9.414;2023-05-31T14:20:44;6.40;;;3.00;;
14740;SDS011;7462;53.530;9.414;2023-05-31T14:23:12;6.03;;;2.70;;
14740;SDS011;7462;53.530;9.414;2023-05-31T14:25:40;6.23;;;3.00;;
14740;SDS011;7462;53.530;9.414;2023-05-31T14:28:10;5.93;;;2.80;;
14740;SDS011;7462;53.530;9.414;2023-05-31T14:30:38;4.97;;;2.57;;
14740;SDS011;7462;53.530;9.414;2023-05-31T14:33:06;6.23;;;3.00;;
14740;SDS011;7462;53.530;9.414;2023-05-31T14:35:35;7.07;;;3.30;;
14740;SDS011;7462;53.530;9.414;2023-05-31T14:38:03;5.93;;;2.70;;
14740;SDS011;7462;53.530;9.414;2023-05-31T14:40:52;5.43;;;2.23;;
14740;SDS011;7462;53.530;9.414;2023-05-31T14:43:21;7.37;;;2.87;;
14740;SDS011;7462;53.530;9.414;2023-05-31T14:45:52;7.33;;;2.67;;
14740;SDS011;7462;53.530;9.414;2023-05-31T14:48:20;5.43;;;2.50;;
14740;SDS011;7462;53.530;9.414;2023-05-31T14:50:48;5.07;;;2.23;;
14740;SDS011;7462;53.530;9.414;2023-05-31T14:53:16;5.10;;;2.43;;
14740;SDS011;7462;53.530;9.414;2023-05-31T14:55:44;6.23;;;2.30;;
14740;SDS011;7462;53.530;9.414;2023-05-31T14:58:12;4.93;;;2.30;;
14740;SDS011;7462;53.530;9.414;2023-05-31T15:00:41;5.73;;;2.53;;
14740;SDS011;7462;53.530;9.414;2023-05-31T15:03:09;4.60;;;2.40;;
14740;SDS011;7462;53.530;9.414;2023-05-31T15:05:37;5.50;;;2.37;;
14740;SDS011;7462;53.530;9.414;2023-05-31T15:08:05;8.07;;;2.70;;
14740;SDS011;7462;53.530;9.414;2023-05-31T15:10:33;5.57;;;2.63;;
14740;SDS011;7462;53.530;9.414;2023-05-31T15:13:01;7.30;;;2.83;;
14740;SDS011;7462;53.530;9.414;2023-05-31T15:15:29;4.93;;;3.07;;
14740;SDS011;7462;53.530;9.414;2023-05-31T15:17:59;6.83;;;3.40;;
14740;SDS011;7462;53.530;9.414;2023-05-31T15:20:27;4.80;;;3.20;;
14740;SDS011;7462;53.530;9.414;2023-05-31T15:22:56;5.63;;;3.70;;